createdAt,value
2019-04-01T00:00:58.649Z,1022.87
2019-04-01T00:01:58.637Z,1022.84
2019-04-01T00:02:58.615Z,1022.92
2019-04-01T00:03:58.604Z,1022.83
2019-04-01T00:04:58.594Z,1022.87
2019-04-01T00:05:58.585Z,1022.88
2019-04-01T00:06:58.592Z,1022.86
2019-04-01T00:07:58.563Z,1022.89
2019-04-01T00:08:58.549Z,1022.90
2019-04-01T00:09:58.542Z,1022.92
2019-04-01T00:10:58.525Z,1022.90
2019-04-01T00:11:58.528Z,1022.97
2019-04-01T00:12:58.505Z,1022.94
2019-04-01T00:13:58.494Z,1022.97
2019-04-01T00:14:58.481Z,1022.95
2019-04-01T00:15:58.481Z,1022.93
2019-04-01T00:16:58.475Z,1022.97
2019-04-01T00:17:58.459Z,1023.00
2019-04-01T00:19:03.507Z,1022.98
2019-04-01T00:19:59.427Z,1023.01
2019-04-01T00:20:58.425Z,1023.05
2019-04-01T00:21:58.421Z,1022.99
2019-04-01T00:22:58.610Z,1022.98
2019-04-01T00:23:58.386Z,1022.96
2019-04-01T00:24:58.373Z,1022.92
2019-04-01T00:25:58.366Z,1022.98
2019-04-01T00:26:58.362Z,1022.97
2019-04-01T00:27:58.341Z,1022.96
2019-04-01T00:28:58.332Z,1023.07
2019-04-01T00:29:58.320Z,1023.04
2019-04-01T00:30:58.310Z,1022.97
2019-04-01T00:31:58.337Z,1022.96
2019-04-01T00:32:58.285Z,1023.06
2019-04-01T00:33:58.277Z,1022.96
2019-04-01T00:34:58.272Z,1022.92
2019-04-01T00:35:58.257Z,1022.92
2019-04-01T00:36:58.273Z,1022.91
2019-04-01T00:37:58.234Z,1022.90
2019-04-01T00:38:58.228Z,1022.99
2019-04-01T00:39:58.227Z,1022.95
2019-04-01T00:40:58.202Z,1023.00
2019-04-01T00:41:58.190Z,1022.98
2019-04-01T00:42:58.188Z,1023.01
2019-04-01T00:43:58.174Z,1022.99
2019-04-01T00:44:58.166Z,1023.01
2019-04-01T00:45:58.161Z,1023.01
2019-04-01T00:46:58.143Z,1023.04
2019-04-01T00:47:58.151Z,1022.98
2019-04-01T00:48:58.114Z,1023.07
2019-04-01T00:49:58.107Z,1023.01
2019-04-01T00:50:58.095Z,1023.01
2019-04-01T00:51:58.089Z,1022.98
2019-04-01T00:52:58.116Z,1022.91
2019-04-01T00:53:58.069Z,1023.00
2019-04-01T00:54:58.067Z,1023.05
2019-04-01T00:55:58.043Z,1022.99
2019-04-01T00:56:58.042Z,1022.95
2019-04-01T00:57:58.034Z,1022.98
2019-04-01T00:58:58.024Z,1023.05
2019-04-01T00:59:58.007Z,1022.97
2019-04-01T01:00:58.000Z,1023.02
2019-04-01T01:01:57.983Z,1023.02
2019-04-01T01:02:57.978Z,1022.94
2019-04-01T01:03:57.962Z,1022.98
2019-04-01T01:04:57.960Z,1022.98
2019-04-01T01:05:57.948Z,1023.04
2019-04-01T01:06:57.935Z,1023.04
2019-04-01T01:07:57.933Z,1023.02
2019-04-01T01:08:57.912Z,1022.96
2019-04-01T01:09:57.895Z,1023.00
2019-04-01T01:10:57.885Z,1022.98
2019-04-01T01:11:57.885Z,1023.02
2019-04-01T01:12:57.967Z,1023.08
2019-04-01T01:13:57.854Z,1023.04
2019-04-01T01:14:57.859Z,1022.99
2019-04-01T01:15:57.846Z,1022.96
2019-04-01T01:16:57.824Z,1023.09
2019-04-01T01:17:57.829Z,1023.04
2019-04-01T01:18:57.803Z,1023.02
2019-04-01T01:19:57.791Z,1023.02
2019-04-01T01:20:57.779Z,1022.96
2019-04-01T01:21:57.769Z,1022.99
2019-04-01T01:22:57.806Z,1022.96
2019-04-01T01:23:57.749Z,1023.05
2019-04-01T01:24:57.737Z,1023.06
2019-04-01T01:25:57.730Z,1023.07
2019-04-01T01:26:57.719Z,1023.06
2019-04-01T01:27:57.708Z,1023.04
2019-04-01T01:28:57.709Z,1023.05
2019-04-01T01:29:57.685Z,1023.02
2019-04-01T01:30:57.682Z,1023.08
2019-04-01T01:31:57.666Z,1023.00
2019-04-01T01:32:57.653Z,1023.04
2019-04-01T01:33:57.655Z,1023.05
2019-04-01T01:34:57.629Z,1023.06
2019-04-01T01:35:57.629Z,1023.04
2019-04-01T01:36:57.612Z,1023.02
2019-04-01T01:37:57.610Z,1023.05
2019-04-01T01:38:57.598Z,1023.05
2019-04-01T01:39:57.585Z,1023.03
2019-04-01T01:40:57.564Z,1023.02
2019-04-01T01:41:57.553Z,1023.08
2019-04-01T01:42:57.542Z,1023.06
2019-04-01T01:43:57.539Z,1023.06
2019-04-01T01:44:57.518Z,1023.09
2019-04-01T01:45:57.513Z,1023.07
2019-04-01T01:46:57.504Z,1023.09
2019-04-01T01:47:57.488Z,1023.12
2019-04-01T01:48:57.486Z,1023.10
2019-04-01T01:49:57.467Z,1023.08
2019-04-01T01:50:57.456Z,1023.06
2019-04-01T01:51:57.446Z,1023.08
2019-04-01T01:52:57.434Z,1023.07
2019-04-01T01:53:57.435Z,1023.09
2019-04-01T01:54:57.418Z,1023.10
2019-04-01T01:55:57.414Z,1023.10
2019-04-01T01:56:57.395Z,1023.17
2019-04-01T01:57:57.383Z,1023.12
2019-04-01T01:58:57.379Z,1023.13
2019-04-01T01:59:57.362Z,1023.15
2019-04-01T02:00:57.354Z,1023.11
2019-04-01T02:01:57.346Z,1023.08
2019-04-01T02:02:57.339Z,1023.10
2019-04-01T02:03:57.341Z,1023.17
2019-04-01T02:04:57.312Z,1023.14
2019-04-01T02:05:57.303Z,1023.17
2019-04-01T02:06:57.294Z,1023.16
2019-04-01T02:07:57.280Z,1023.14
2019-04-01T02:08:57.285Z,1023.17
2019-04-01T02:09:57.262Z,1023.15
2019-04-01T02:10:57.249Z,1023.16
2019-04-01T02:11:57.244Z,1023.18
2019-04-01T02:12:57.242Z,1023.12
2019-04-01T02:13:57.239Z,1023.14
2019-04-01T02:14:57.213Z,1023.16
2019-04-01T02:15:57.203Z,1023.18
2019-04-01T02:16:57.190Z,1023.16
2019-04-01T02:17:57.180Z,1023.16
2019-04-01T02:18:57.187Z,1023.19
2019-04-01T02:19:57.156Z,1023.17
2019-04-01T02:20:57.151Z,1023.24
2019-04-01T02:21:57.126Z,1023.16
2019-04-01T02:22:57.116Z,1023.22
2019-04-01T02:23:57.115Z,1023.18
2019-04-01T02:24:57.093Z,1023.16
2019-04-01T02:25:57.087Z,1023.13
2019-04-01T02:26:57.076Z,1023.20
2019-04-01T02:27:57.064Z,1023.21
2019-04-01T02:28:57.065Z,1023.16
2019-04-01T02:29:57.043Z,1023.25
2019-04-01T02:30:57.039Z,1023.19
2019-04-01T02:31:57.072Z,1023.19
2019-04-01T02:32:57.013Z,1023.22
2019-04-01T02:33:57.016Z,1023.25
2019-04-01T02:34:56.995Z,1023.15
2019-04-01T02:35:56.978Z,1023.20
2019-04-01T02:36:56.970Z,1023.23
2019-04-01T02:37:56.967Z,1023.25
2019-04-01T02:38:56.956Z,1023.17
2019-04-01T02:39:56.940Z,1023.25
2019-04-01T02:40:56.995Z,1023.16
2019-04-01T02:41:56.925Z,1023.20
2019-04-01T02:42:56.904Z,1023.20
2019-04-01T02:43:56.960Z,1023.21
2019-04-01T02:44:56.894Z,1023.17
2019-04-01T02:45:56.868Z,1023.19
2019-04-01T02:46:56.871Z,1023.14
2019-04-01T02:47:56.848Z,1023.19
2019-04-01T02:48:56.877Z,1023.22
2019-04-01T02:49:56.829Z,1023.22
2019-04-01T02:50:56.824Z,1023.16
2019-04-01T02:51:56.812Z,1023.18
2019-04-01T02:52:56.796Z,1023.20
2019-04-01T02:53:56.829Z,1023.14
2019-04-01T02:54:56.778Z,1023.16
2019-04-01T02:55:56.768Z,1023.24
2019-04-01T02:56:56.761Z,1023.18
2019-04-01T02:57:56.745Z,1023.16
2019-04-01T02:58:56.737Z,1023.18
2019-04-01T02:59:56.734Z,1023.16
2019-04-01T03:00:56.857Z,1023.20
2019-04-01T03:01:56.704Z,1023.15
2019-04-01T03:02:56.691Z,1023.14
2019-04-01T03:03:56.694Z,1023.19
2019-04-01T03:04:56.700Z,1023.24
2019-04-01T03:05:56.675Z,1023.20
2019-04-01T03:06:56.659Z,1023.19
2019-04-01T03:07:56.649Z,1023.22
2019-04-01T03:08:56.634Z,1023.17
2019-04-01T03:09:56.633Z,1023.20
2019-04-01T03:10:56.751Z,1023.14
2019-04-01T03:11:56.610Z,1023.23
2019-04-01T03:12:56.597Z,1023.18
2019-04-01T03:13:56.585Z,1023.20
2019-04-01T03:14:56.593Z,1023.23
2019-04-01T03:15:56.587Z,1023.24
2019-04-01T03:16:56.575Z,1023.26
2019-04-01T03:17:56.549Z,1023.30
2019-04-01T03:18:56.530Z,1023.26
2019-04-01T03:19:56.532Z,1023.25
2019-04-01T03:20:56.651Z,1023.23
2019-04-01T03:21:56.509Z,1023.27
2019-04-01T03:22:56.488Z,1023.25
2019-04-01T03:23:56.483Z,1023.29
2019-04-01T03:24:56.509Z,1023.22
2019-04-01T03:25:56.454Z,1023.23
2019-04-01T03:26:56.454Z,1023.21
2019-04-01T03:27:56.428Z,1023.20
2019-04-01T03:28:56.423Z,1023.21
2019-04-01T03:29:56.438Z,1023.18
2019-04-01T03:30:56.421Z,1023.17
2019-04-01T03:31:56.397Z,1023.25
2019-04-01T03:32:56.419Z,1023.27
2019-04-01T03:33:56.369Z,1023.25
2019-04-01T03:34:56.434Z,1023.18
2019-04-01T03:35:56.344Z,1023.24
2019-04-01T03:36:56.332Z,1023.25
2019-04-01T03:37:56.365Z,1023.22
2019-04-01T03:38:56.323Z,1023.18
2019-04-01T03:39:56.317Z,1023.26
2019-04-01T03:40:56.289Z,1023.20
2019-04-01T03:41:56.280Z,1023.20
2019-04-01T03:42:56.267Z,1023.26
2019-04-01T03:43:56.264Z,1023.21
2019-04-01T03:44:56.277Z,1023.18
2019-04-01T03:45:56.237Z,1023.26
2019-04-01T03:46:56.226Z,1023.20
2019-04-01T03:47:56.214Z,1023.17
2019-04-01T03:48:56.213Z,1023.18
2019-04-01T03:49:56.211Z,1023.23
2019-04-01T03:50:56.196Z,1023.20
2019-04-01T03:51:56.175Z,1023.19
2019-04-01T03:52:56.166Z,1023.21
2019-04-01T03:53:56.160Z,1023.21
2019-04-01T03:54:56.176Z,1023.19
2019-04-01T03:55:56.145Z,1023.18
2019-04-01T03:56:56.126Z,1023.17
2019-04-01T03:57:56.113Z,1023.18
2019-04-01T03:58:56.103Z,1023.19
2019-04-01T03:59:56.111Z,1023.20
2019-04-01T04:00:56.083Z,1023.25
2019-04-01T04:01:56.069Z,1023.23
2019-04-01T04:02:56.055Z,1023.26
2019-04-01T04:03:56.048Z,1023.21
2019-04-01T04:04:56.045Z,1023.27
2019-04-01T04:05:56.037Z,1023.18
2019-04-01T04:06:56.047Z,1023.27
2019-04-01T04:07:56.007Z,1023.22
2019-04-01T04:08:55.987Z,1023.26
2019-04-01T04:09:55.993Z,1023.32
2019-04-01T04:10:55.972Z,1023.35
2019-04-01T04:11:55.961Z,1023.32
2019-04-01T04:12:55.957Z,1023.30
2019-04-01T04:13:55.947Z,1023.29
2019-04-01T04:14:55.958Z,1023.21
2019-04-01T04:15:55.922Z,1023.24
2019-04-01T04:16:55.906Z,1023.26
2019-04-01T04:17:55.901Z,1023.26
2019-04-01T04:18:55.884Z,1023.28
2019-04-01T04:19:55.872Z,1023.34
2019-04-01T04:20:55.874Z,1023.35
2019-04-01T04:21:55.847Z,1023.33
2019-04-01T04:22:55.839Z,1023.37
2019-04-01T04:23:55.907Z,1023.37
2019-04-01T04:24:55.817Z,1023.38
2019-04-01T04:25:55.837Z,1023.41
2019-04-01T04:26:55.808Z,1023.42
2019-04-01T04:27:55.791Z,1023.38
2019-04-01T04:28:55.819Z,1023.35
2019-04-01T04:29:55.773Z,1023.31
2019-04-01T04:30:55.776Z,1023.31
2019-04-01T04:31:55.747Z,1023.39
2019-04-01T04:32:55.733Z,1023.39
2019-04-01T04:33:55.730Z,1023.40
2019-04-01T04:34:57.523Z,1023.35
2019-04-01T04:35:55.720Z,1023.42
2019-04-01T04:36:55.695Z,1023.36
2019-04-01T04:37:55.683Z,1023.31
2019-04-01T04:38:55.669Z,1023.35
2019-04-01T04:39:55.659Z,1023.37
2019-04-01T04:40:55.654Z,1023.34
2019-04-01T04:41:55.635Z,1023.36
2019-04-01T04:42:55.628Z,1023.39
2019-04-01T04:43:55.613Z,1023.42
2019-04-01T04:44:55.602Z,1023.46
2019-04-01T04:45:55.607Z,1023.41
2019-04-01T04:46:55.584Z,1023.43
2019-04-01T04:47:55.570Z,1023.41
2019-04-01T04:48:55.561Z,1023.43
2019-04-01T04:49:55.546Z,1023.47
2019-04-01T04:50:55.557Z,1023.55
2019-04-01T04:51:55.539Z,1023.51
2019-04-01T04:52:55.529Z,1023.52
2019-04-01T04:53:55.522Z,1023.54
2019-04-01T04:54:55.501Z,1023.57
2019-04-01T04:55:55.503Z,1023.59
2019-04-01T04:56:55.485Z,1023.54
2019-04-01T04:57:55.470Z,1023.52
2019-04-01T04:58:55.479Z,1023.55
2019-04-01T04:59:55.463Z,1023.53
2019-04-01T05:00:55.451Z,1023.52
2019-04-01T05:01:55.434Z,1023.56
2019-04-01T05:02:55.416Z,1023.61
2019-04-01T05:03:55.409Z,1023.56
2019-04-01T05:04:55.401Z,1023.58
2019-04-01T05:05:55.400Z,1023.60
2019-04-01T05:06:55.376Z,1023.54
2019-04-01T05:07:55.362Z,1023.59
2019-04-01T05:08:55.354Z,1023.62
2019-04-01T05:09:55.350Z,1023.65
2019-04-01T05:10:55.338Z,1023.63
2019-04-01T05:11:55.357Z,1023.63
2019-04-01T05:12:55.316Z,1023.66
2019-04-01T05:13:55.299Z,1023.63
2019-04-01T05:14:55.292Z,1023.65
2019-04-01T05:15:55.295Z,1023.69
2019-04-01T05:16:55.273Z,1023.76
2019-04-01T05:17:55.259Z,1023.75
2019-04-01T05:18:55.249Z,1023.76
2019-04-01T05:19:55.238Z,1023.79
2019-04-01T05:20:55.254Z,1023.76
2019-04-01T05:21:55.220Z,1023.77
2019-04-01T05:22:55.224Z,1023.79
2019-04-01T05:23:55.193Z,1023.78
2019-04-01T05:24:55.202Z,1023.77
2019-04-01T05:25:55.188Z,1023.77
2019-04-01T05:26:55.247Z,1023.82
2019-04-01T05:27:55.258Z,1023.78
2019-04-01T05:28:55.189Z,1023.82
2019-04-01T05:29:55.129Z,1023.77
2019-04-01T05:30:55.117Z,1023.80
2019-04-01T05:31:55.125Z,1023.81
2019-04-01T05:32:55.107Z,1023.84
2019-04-01T05:33:55.983Z,1023.86
2019-04-01T05:34:55.079Z,1023.79
2019-04-01T05:35:55.110Z,1023.80
2019-04-01T05:36:55.078Z,1023.80
2019-04-01T05:37:55.051Z,1023.86
2019-04-01T05:38:55.049Z,1023.84
2019-04-01T05:39:55.229Z,1023.88
2019-04-01T05:40:55.056Z,1023.80
2019-04-01T05:41:55.028Z,1023.83
2019-04-01T05:42:54.988Z,1023.80
2019-04-01T05:43:54.980Z,1023.81
2019-04-01T05:44:55.017Z,1023.89
2019-04-01T05:45:55.083Z,1023.85
2019-04-01T05:46:54.961Z,1023.85
2019-04-01T05:47:54.941Z,1023.92
2019-04-01T05:48:54.946Z,1023.89
2019-04-01T05:49:54.939Z,1023.92
2019-04-01T05:50:54.940Z,1023.97
2019-04-01T05:51:54.939Z,1023.97
2019-04-01T05:52:54.888Z,1023.95
2019-04-01T05:53:54.873Z,1023.98
2019-04-01T05:54:54.882Z,1023.98
2019-04-01T05:55:54.856Z,1023.91
2019-04-01T05:56:54.888Z,1023.92
2019-04-01T05:57:54.833Z,1023.98
2019-04-01T05:58:54.819Z,1023.93
2019-04-01T05:59:54.819Z,1023.92
2019-04-01T06:00:54.801Z,1023.97
2019-04-01T06:01:54.799Z,1023.92
2019-04-01T06:02:54.784Z,1023.98
2019-04-01T06:03:54.782Z,1023.98
2019-04-01T06:04:54.762Z,1024.07
2019-04-01T06:05:54.810Z,1024.07
2019-04-01T06:06:54.775Z,1024.11
2019-04-01T06:07:54.738Z,1024.06
2019-04-01T06:08:54.712Z,1024.01
2019-04-01T06:09:54.701Z,1023.99
2019-04-01T06:10:54.693Z,1024.04
2019-04-01T06:11:54.700Z,1024.08
2019-04-01T06:12:54.674Z,1024.03
2019-04-01T06:13:54.673Z,1024.03
2019-04-01T06:14:54.652Z,1024.07
2019-04-01T06:15:54.654Z,1024.08
2019-04-01T06:16:54.644Z,1024.09
2019-04-01T06:17:54.620Z,1024.08
2019-04-01T06:18:54.611Z,1024.12
2019-04-01T06:19:54.628Z,1024.10
2019-04-01T06:20:54.586Z,1024.08
2019-04-01T06:21:54.597Z,1024.08
2019-04-01T06:22:54.564Z,1024.08
2019-04-01T06:23:54.559Z,1024.05
2019-04-01T06:24:54.545Z,1024.11
2019-04-01T06:25:54.545Z,1024.08
2019-04-01T06:26:54.594Z,1024.11
2019-04-01T06:27:54.518Z,1024.20
2019-04-01T06:28:54.505Z,1024.16
2019-04-01T06:29:54.493Z,1024.14
2019-04-01T06:30:54.498Z,1024.21
2019-04-01T06:31:54.483Z,1024.22
2019-04-01T06:32:54.454Z,1024.11
2019-04-01T06:33:54.449Z,1024.16
2019-04-01T06:34:54.437Z,1024.16
2019-04-01T06:35:54.427Z,1024.18
2019-04-01T06:36:54.475Z,1024.21
2019-04-01T06:37:54.410Z,1024.19
2019-04-01T06:38:54.391Z,1024.17
2019-04-01T06:39:54.383Z,1024.22
2019-04-01T06:40:54.390Z,1024.22
2019-04-01T06:41:54.419Z,1024.16
2019-04-01T06:42:54.389Z,1024.17
2019-04-01T06:43:54.338Z,1024.19
2019-04-01T06:44:54.331Z,1024.23
2019-04-01T06:45:54.318Z,1024.24
2019-04-01T06:46:54.318Z,1024.27
2019-04-01T06:47:54.314Z,1024.27
2019-04-01T06:48:54.282Z,1024.34
2019-04-01T06:49:54.281Z,1024.27
2019-04-01T06:50:54.262Z,1024.22
2019-04-01T06:51:54.260Z,1024.29
2019-04-01T06:52:54.244Z,1024.29
2019-04-01T06:53:54.247Z,1024.32
2019-04-01T06:54:54.226Z,1024.31
2019-04-01T06:55:54.251Z,1024.33
2019-04-01T06:56:54.217Z,1024.36
2019-04-01T06:57:54.192Z,1024.32
2019-04-01T06:58:54.183Z,1024.35
2019-04-01T06:59:54.161Z,1024.37
2019-04-01T07:00:54.163Z,1024.35
2019-04-01T07:01:54.161Z,1024.39
2019-04-01T07:02:54.138Z,1024.42
2019-04-01T07:03:54.138Z,1024.41
2019-04-01T07:04:54.126Z,1024.39
2019-04-01T07:05:54.099Z,1024.43
2019-04-01T07:06:54.112Z,1024.41
2019-04-01T07:07:54.076Z,1024.48
2019-04-01T07:08:54.074Z,1024.37
2019-04-01T07:09:54.065Z,1024.46
2019-04-01T07:10:54.051Z,1024.37
2019-04-01T07:11:54.043Z,1024.40
2019-04-01T07:12:54.023Z,1024.45
2019-04-01T07:13:54.011Z,1024.40
2019-04-01T07:14:54.008Z,1024.42
2019-04-01T07:15:54.009Z,1024.45
2019-04-01T07:16:54.008Z,1024.45
2019-04-01T07:17:53.976Z,1024.44
2019-04-01T07:18:53.978Z,1024.49
2019-04-01T07:19:53.952Z,1024.49
2019-04-01T07:20:53.937Z,1024.50
2019-04-01T07:21:54.515Z,1024.48
2019-04-01T07:22:53.919Z,1024.48
2019-04-01T07:23:53.899Z,1024.43
2019-04-01T07:24:53.893Z,1024.50
2019-04-01T07:25:53.884Z,1024.48
2019-04-01T07:26:53.988Z,1024.48
2019-04-01T07:27:53.871Z,1024.55
2019-04-01T07:28:53.852Z,1024.51
2019-04-01T07:29:53.840Z,1024.48
2019-04-01T07:31:03.103Z,1024.48
2019-04-01T07:31:53.821Z,1024.45
2019-04-01T07:32:53.870Z,1024.51
2019-04-01T07:33:53.838Z,1024.52
2019-04-01T07:34:53.782Z,1024.47
2019-04-01T07:35:53.770Z,1024.56
2019-04-01T07:36:53.801Z,1024.51
2019-04-01T07:37:53.762Z,1024.52
2019-04-01T07:38:53.867Z,1024.48
2019-04-01T07:39:53.731Z,1024.44
2019-04-01T07:40:53.714Z,1024.44
2019-04-01T07:41:53.705Z,1024.41
2019-04-01T07:42:53.728Z,1024.42
2019-04-01T07:43:53.689Z,1024.49
2019-04-01T07:44:53.675Z,1024.51
2019-04-01T07:45:53.660Z,1024.51
2019-04-01T07:46:53.648Z,1024.52
2019-04-01T07:47:53.649Z,1024.50
2019-04-01T07:48:53.628Z,1024.49
2019-04-01T07:49:53.630Z,1024.46
2019-04-01T07:50:53.854Z,1024.39
2019-04-01T07:51:53.597Z,1024.40
2019-04-01T07:52:55.388Z,1024.41
2019-04-01T07:53:53.577Z,1024.45
2019-04-01T07:54:53.577Z,1024.52
2019-04-01T07:55:53.564Z,1024.55
2019-04-01T07:56:53.637Z,1024.51
2019-04-01T07:57:53.552Z,1024.49
2019-04-01T07:58:53.526Z,1024.48
2019-04-01T07:59:56.785Z,1024.47
2019-04-01T08:00:53.506Z,1024.55
2019-04-01T08:01:53.509Z,1024.44
2019-04-01T08:02:53.505Z,1024.46
2019-04-01T08:03:53.480Z,1024.48
2019-04-01T08:04:53.471Z,1024.52
2019-04-01T08:05:53.461Z,1024.52
2019-04-01T08:06:53.445Z,1024.54
2019-04-01T08:07:53.455Z,1024.54
2019-04-01T08:08:53.427Z,1024.62
2019-04-01T08:09:53.410Z,1024.64
2019-04-01T08:10:53.397Z,1024.66
2019-04-01T08:11:53.401Z,1024.75
2019-04-01T08:12:53.388Z,1024.63
2019-04-01T08:13:53.363Z,1024.64
2019-04-01T08:14:53.359Z,1024.73
2019-04-01T08:15:53.407Z,1024.69
2019-04-01T08:16:53.338Z,1024.63
2019-04-01T08:17:53.339Z,1024.64
2019-04-01T08:18:53.324Z,1024.58
2019-04-01T08:19:53.312Z,1024.54
2019-04-01T08:20:53.293Z,1024.57
2019-04-01T08:21:53.287Z,1024.58
2019-04-01T08:22:53.277Z,1024.60
2019-04-01T08:23:53.266Z,1024.60
2019-04-01T08:24:53.294Z,1024.64
2019-04-01T08:25:53.238Z,1024.59
2019-04-01T08:26:53.226Z,1024.63
2019-04-01T08:27:53.229Z,1024.56
2019-04-01T08:28:53.198Z,1024.56
2019-04-01T08:29:53.195Z,1024.56
2019-04-01T08:31:02.679Z,1024.56
2019-04-01T08:32:02.641Z,1024.54
2019-04-01T08:32:53.172Z,1024.57
2019-04-01T08:34:02.178Z,1024.48
2019-04-01T08:36:09.370Z,1024.49
2019-04-01T08:37:18.581Z,1024.52
2019-04-01T08:38:17.890Z,1024.53
2019-04-01T08:39:18.629Z,1024.51
2019-04-01T08:40:18.655Z,1024.48
2019-04-01T08:41:18.679Z,1024.53
2019-04-01T08:42:19.703Z,1024.53
2019-04-01T08:43:18.245Z,1024.51
2019-04-01T08:44:18.751Z,1024.53
2019-04-01T08:45:09.245Z,1024.51
2019-04-01T08:46:09.242Z,1024.54
2019-04-01T08:47:09.223Z,1024.51
2019-04-01T08:48:09.242Z,1024.53
2019-04-01T08:49:09.206Z,1024.51
2019-04-01T08:50:19.312Z,1024.54
2019-04-01T08:51:09.181Z,1024.58
2019-04-01T08:52:09.172Z,1024.54
2019-04-01T08:53:09.174Z,1024.55
2019-04-01T08:54:09.158Z,1024.56
2019-04-01T08:55:09.137Z,1024.54
2019-04-01T08:56:09.165Z,1024.51
2019-04-01T08:57:09.114Z,1024.50
2019-04-01T08:58:09.113Z,1024.53
2019-04-01T08:59:09.165Z,1024.49
2019-04-01T09:00:09.086Z,1024.48
2019-04-01T09:01:09.094Z,1024.47
2019-04-01T09:02:17.606Z,1024.50
2019-04-01T09:03:10.059Z,1024.48
2019-04-01T09:04:09.035Z,1024.50
2019-04-01T09:05:09.033Z,1024.51
2019-04-01T09:06:09.144Z,1024.52
2019-04-01T09:07:09.004Z,1024.51
2019-04-01T09:08:09.004Z,1024.44
2019-04-01T09:09:08.979Z,1024.45
2019-04-01T09:10:08.968Z,1024.61
2019-04-01T09:11:08.958Z,1024.52
2019-04-01T09:12:08.952Z,1024.47
2019-04-01T09:13:08.956Z,1024.45
2019-04-01T09:14:08.937Z,1024.44
2019-04-01T09:15:08.916Z,1024.48
2019-04-01T09:16:08.905Z,1024.48
2019-04-01T09:17:08.897Z,1024.49
2019-04-01T09:18:08.906Z,1024.51
2019-04-01T09:19:08.871Z,1024.46
2019-04-01T09:20:08.859Z,1024.49
2019-04-01T09:21:08.850Z,1024.46
2019-04-01T09:22:08.842Z,1024.52
2019-04-01T09:23:08.838Z,1024.52
2019-04-01T09:24:08.817Z,1024.63
2019-04-01T09:25:08.821Z,1024.59
2019-04-01T09:26:08.805Z,1024.59
2019-04-01T09:27:08.784Z,1024.61
2019-04-01T09:28:08.790Z,1024.63
2019-04-01T09:29:08.775Z,1024.62
2019-04-01T09:30:08.804Z,1024.62
2019-04-01T09:31:08.756Z,1024.70
2019-04-01T09:32:08.736Z,1024.69
2019-04-01T09:33:08.735Z,1024.76
2019-04-01T09:34:08.728Z,1024.78
2019-04-01T09:35:08.715Z,1024.64
2019-04-01T09:36:08.692Z,1024.63
2019-04-01T09:37:08.682Z,1024.71
2019-04-01T09:38:08.678Z,1024.70
2019-04-01T09:39:08.657Z,1024.68
2019-04-01T09:40:08.658Z,1024.67
2019-04-01T09:41:08.637Z,1024.67
2019-04-01T09:42:08.630Z,1024.67
2019-04-01T09:43:08.636Z,1024.75
2019-04-01T09:44:08.606Z,1024.71
2019-04-01T09:45:08.594Z,1024.71
2019-04-01T09:46:08.615Z,1024.78
2019-04-01T09:47:08.571Z,1024.73
2019-04-01T09:48:08.601Z,1024.82
2019-04-01T09:49:08.550Z,1024.79
2019-04-01T09:50:08.537Z,1024.76
2019-04-01T09:51:08.533Z,1024.76
2019-04-01T09:52:08.533Z,1024.79
2019-04-01T09:53:08.518Z,1024.84
2019-04-01T09:54:08.512Z,1024.78
2019-04-01T09:55:08.487Z,1024.79
2019-04-01T09:56:08.487Z,1024.78
2019-04-01T09:57:17.359Z,1024.74
2019-04-01T09:58:09.469Z,1024.74
2019-04-01T09:59:08.563Z,1024.83
2019-04-01T10:00:08.431Z,1024.74
2019-04-01T10:01:08.424Z,1024.75
2019-04-01T10:02:08.416Z,1024.77
2019-04-01T10:03:08.414Z,1024.73
2019-04-01T10:04:08.402Z,1024.75
2019-04-01T10:05:08.382Z,1024.79
2019-04-01T10:06:10.452Z,1024.72
2019-04-01T10:07:08.366Z,1024.70
2019-04-01T10:08:08.371Z,1024.76
2019-04-01T10:09:08.359Z,1024.70
2019-04-01T10:10:08.330Z,1024.71
2019-04-01T10:11:08.324Z,1024.62
2019-04-01T10:12:08.316Z,1024.68
2019-04-01T10:13:08.312Z,1024.71
2019-04-01T10:14:08.315Z,1024.65
2019-04-01T10:15:08.294Z,1024.62
2019-04-01T10:16:08.272Z,1024.70
2019-04-01T10:17:08.298Z,1024.71
2019-04-01T10:18:08.302Z,1024.73
2019-04-01T10:19:08.332Z,1024.72
2019-04-01T10:20:08.285Z,1024.74
2019-04-01T10:21:08.230Z,1024.71
2019-04-01T10:22:08.212Z,1024.70
2019-04-01T10:23:08.203Z,1024.68
2019-04-01T10:24:08.208Z,1024.67
2019-04-01T10:25:08.189Z,1024.68
2019-04-01T10:26:08.230Z,1024.64
2019-04-01T10:27:08.165Z,1024.65
2019-04-01T10:28:08.149Z,1024.69
2019-04-01T10:29:15.704Z,1024.73
2019-04-01T10:30:08.145Z,1024.68
2019-04-01T10:31:08.133Z,1024.68
2019-04-01T10:32:08.106Z,1024.62
2019-04-01T10:33:08.103Z,1024.58
2019-04-01T10:34:08.189Z,1024.64
2019-04-01T10:35:08.087Z,1024.75
2019-04-01T10:36:08.076Z,1024.72
2019-04-01T10:37:08.095Z,1024.61
2019-04-01T10:38:08.060Z,1024.54
2019-04-01T10:39:08.064Z,1024.68
2019-04-01T10:40:08.030Z,1024.61
2019-04-01T10:41:08.041Z,1024.59
2019-04-01T10:42:08.026Z,1024.63
2019-04-01T10:43:08.007Z,1024.56
2019-04-01T10:44:08.120Z,1024.59
2019-04-01T10:45:08.112Z,1024.58
2019-04-01T10:46:07.975Z,1024.56
2019-04-01T10:47:08.002Z,1024.59
2019-04-01T10:48:08.024Z,1024.50
2019-04-01T10:49:08.024Z,1024.56
2019-04-01T10:50:07.947Z,1024.53
2019-04-01T10:51:07.955Z,1024.59
2019-04-01T10:52:07.923Z,1024.57
2019-04-01T10:53:08.000Z,1024.55
2019-04-01T10:54:08.028Z,1024.54
2019-04-01T10:55:07.982Z,1024.52
2019-04-01T10:56:07.975Z,1024.47
2019-04-01T10:57:07.885Z,1024.46
2019-04-01T10:58:07.960Z,1024.50
2019-04-01T10:59:07.869Z,1024.44
2019-04-01T11:00:07.883Z,1024.46
2019-04-01T11:01:07.842Z,1024.47
2019-04-01T11:02:07.960Z,1024.47
2019-04-01T11:03:07.872Z,1024.45
2019-04-01T11:04:07.905Z,1024.47
2019-04-01T11:05:07.853Z,1024.48
2019-04-01T11:06:07.876Z,1024.41
2019-04-01T11:07:07.846Z,1024.45
2019-04-01T11:08:07.782Z,1024.48
2019-04-01T11:09:07.906Z,1024.43
2019-04-01T11:10:11.094Z,1024.28
2019-04-01T11:11:07.740Z,1024.37
2019-04-01T11:12:07.740Z,1024.39
2019-04-01T11:13:07.720Z,1024.39
2019-04-01T11:14:07.730Z,1024.40
2019-04-01T11:15:07.719Z,1024.36
2019-04-01T11:16:07.731Z,1024.13
2019-04-01T11:17:07.684Z,1023.93
2019-04-01T11:18:07.683Z,1023.89
2019-04-01T11:19:07.687Z,1024.02
2019-04-01T11:20:08.222Z,1024.13
2019-04-01T11:21:07.675Z,1024.22
2019-04-01T11:22:07.661Z,1024.18
2019-04-01T11:23:07.658Z,1024.15
2019-04-01T11:24:07.850Z,1024.12
2019-04-01T11:25:07.611Z,1024.16
2019-04-01T11:26:07.646Z,1024.15
2019-04-01T11:27:07.598Z,1024.12
2019-04-01T11:28:07.616Z,1023.86
2019-04-01T11:29:07.602Z,1023.70
2019-04-01T11:30:08.105Z,1023.67
2019-04-01T11:31:07.576Z,1023.54
2019-04-01T11:32:07.785Z,1023.62
2019-04-01T11:33:08.096Z,1023.75
2019-04-01T11:34:07.543Z,1023.97
2019-04-01T11:35:07.609Z,1023.99
2019-04-01T11:36:07.611Z,1023.99
2019-04-01T11:37:07.519Z,1023.93
2019-04-01T11:38:07.510Z,1023.97
2019-04-01T11:39:07.575Z,1024.01
2019-04-01T11:40:11.138Z,1024.07
2019-04-01T11:41:07.471Z,1023.99
2019-04-01T11:42:07.501Z,1023.95
2019-04-01T11:43:07.444Z,1023.99
2019-04-01T11:44:07.468Z,1024.01
2019-04-01T11:45:07.433Z,1023.99
2019-04-01T11:46:07.450Z,1023.87
2019-04-01T11:47:07.427Z,1023.95
2019-04-01T11:48:07.468Z,1023.91
2019-04-01T11:49:07.448Z,1023.92
2019-04-01T11:50:07.384Z,1023.94
2019-04-01T11:51:07.384Z,1023.76
2019-04-01T11:52:08.803Z,1023.53
2019-04-01T11:53:07.405Z,1023.54
2019-04-01T11:54:08.293Z,1023.41
2019-04-01T11:55:08.901Z,1023.38
2019-04-01T11:56:07.326Z,1023.41
2019-04-01T11:57:07.317Z,1023.69
2019-04-01T11:58:07.314Z,1023.70
2019-04-01T11:59:08.364Z,1023.77
2019-04-01T12:00:11.371Z,1023.77
2019-04-01T12:01:08.322Z,1023.70
2019-04-01T12:02:07.269Z,1023.80
2019-04-01T12:03:07.267Z,1023.75
2019-04-01T12:04:07.266Z,1023.72
2019-04-01T12:05:07.250Z,1023.61
2019-04-01T12:06:07.249Z,1023.72
2019-04-01T12:07:07.224Z,1023.58